Latest Weather Observations for Nowra

IDN60801

Issued at 3:33 pm EST Friday 29 July 2016 (issued every 30 minutes, with the page automatically refreshed every 10 minutes)

About weather observations | Map of weather stations | Latest weather observations for NSW | Other Formats
Station Details ID: 068072 Name: NOWRA RAN AIR STATION AWS Lat: -34.95 Lon: 150.54 Height: 109.0 m
Data from the previous 72 hours. | See also: Recent months at Nowra
Date/Time
EST
Temp
°C
App
Temp
°C
Dew
Point
°C
Rel
Hum
%
Delta-T
°C
Wind Press
QNH
hPa
Press
MSL
hPa
Rain since
9am
mm
Dir  Spd
km/h
Gust
km/h
Spd
kts
Gust
kts
29/03:00pm 15.6 10.0 3.4 44 5.6 NW 22 33 12 18 1017.1 1017.2 0.0
29/02:30pm 15.4 9.4 3.5 45 5.5 WNW 24 33 13 18 1017.2 - 0.0
29/02:21pm 15.5 8.4 3.3 44 5.6 WNW 30 48 16 26 1016.7 - 0.0
29/02:00pm 15.3 6.9 3.5 45 5.4 WNW 37 50 20 27 1016.9 - 0.0
29/01:30pm 15.3 9.7 3.5 45 5.4 WNW 22 39 12 21 1017.9 - 0.0
29/01:00pm 16.0 10.0 3.4 43 5.8 WNW 24 37 13 20 1018.1 - 0.0
29/12:30pm 16.2 9.9 3.9 44 5.7 WNW 26 39 14 21 1018.1 - 0.0
29/12:19pm 15.5 8.3 3.0 43 5.7 WNW 30 50 16 27 1018.3 - 0.0
29/12:00pm 15.3 7.8 3.5 45 5.4 WNW 32 44 17 24 1018.6 1018.7 0.0
29/11:30am 14.8 9.2 3.3 46 5.2 WNW 22 30 12 16 1019.4 - 0.0
29/11:00am 14.0 8.1 3.8 50 4.7 WNW 24 35 13 19 1019.9 - 0.0
29/10:30am 13.4 8.5 4.0 53 4.3 NW 19 30 10 16 1020.5 - 0.0
29/10:00am 12.6 7.6 3.5 54 4.1 NW 19 26 10 14 1021.0 - 0.0
29/09:30am 11.7 7.1 3.7 58 3.6 WNW 17 28 9 15 1021.3 - 0.0
29/09:00am 10.6 5.5 3.9 63 3.0 NW 20 32 11 17 1021.2 1021.3 0.0
29/08:30am 9.5 4.3 3.7 67 2.5 NNW 20 28 11 15 1021.2 - 0.0
29/08:00am 8.5 3.0 3.8 72 2.0 NW 22 30 12 16 1021.7 - 0.0
29/07:30am 7.8 2.6 3.7 75 1.8 NW 20 28 11 15 1021.8 - 0.0
29/07:00am 7.0 2.4 3.6 79 1.5 NW 17 24 9 13 1021.8 - 0.0
29/06:30am 6.8 2.5 3.4 79 1.4 NW 15 22 8 12 1021.7 - 0.0
29/06:00am 6.9 1.3 3.3 78 1.5 NW 22 28 12 15 1021.5 1021.6 0.0
29/05:30am 6.9 0.9 3.3 78 1.5 NW 24 30 13 16 1021.4 - 0.0
29/05:00am 7.0 0.6 3.3 77 1.6 NW 26 37 14 20 1021.2 - 0.0
29/04:30am 7.5 1.1 3.2 74 1.8 WNW 26 32 14 17 1021.1 - 0.0
29/04:00am 7.6 1.2 3.1 73 1.9 WNW 26 33 14 18 1021.1 - 0.0
29/03:30am 8.0 1.2 3.3 72 2.0 WNW 28 35 15 19 1021.2 - 0.0
29/03:00am 7.8 1.8 3.3 73 1.9 NW 24 30 13 16 1021.4 1021.5 0.0
29/02:30am 8.3 1.9 3.2 70 2.2 WNW 26 33 14 18 1021.6 - 0.0
29/02:00am 8.2 2.2 3.1 70 2.2 NW 24 33 13 18 1021.7 - 0.0
29/01:30am 8.4 2.4 3.1 69 2.3 NW 24 33 13 18 1021.8 - 0.0
29/01:00am 8.6 1.8 3.0 68 2.4 WNW 28 35 15 19 1021.6 - 0.0
29/12:30am 8.8 1.9 2.8 66 2.6 WNW 28 37 15 20 1021.9 - 0.0
29/12:00am 8.8 1.9 2.8 66 2.5 WNW 28 35 15 19 1021.8 1021.9 0.0
 
Date/Time
EST
Temp
°C
App
Temp
°C
Dew
Point
°C
Rel
Hum
%
Delta-T
°C
Wind Press
QNH
hPa
Press
MSL
hPa
Rain since
9am
mm
Dir  Spd
km/h
Gust
km/h
Spd
kts
Gust
kts
28/11:30pm 9.1 1.5 2.9 65 2.7 WNW 32 41 17 22 1021.9 - 0.0
28/11:00pm 9.5 2.3 3.0 64 2.8 NW 30 41 16 22 1021.8 - 0.0
28/10:30pm 9.5 2.3 3.0 64 2.8 NW 30 43 16 23 1021.7 - 0.0
28/10:00pm 9.9 2.7 3.2 63 2.9 WNW 30 39 16 21 1021.8 - 0.0
28/09:30pm 10.1 3.0 3.4 63 2.9 WNW 30 41 16 22 1021.8 - 0.0
28/09:00pm 10.3 3.2 3.3 62 3.0 WNW 30 43 16 23 1021.8 1021.9 0.0
28/08:30pm 10.3 3.5 3.3 62 3.1 NW 28 37 15 20 1021.8 - 0.0
28/08:00pm 10.6 3.9 3.4 61 3.2 NW 28 39 15 21 1021.6 - 0.0
28/07:30pm 11.0 4.3 3.5 60 3.3 WNW 28 37 15 20 1021.5 - 0.0
28/07:00pm 11.1 4.4 3.6 60 3.3 WNW 28 39 15 21 1021.3 - 0.0
28/06:30pm 11.1 4.8 3.9 61 3.2 NW 26 37 14 20 1020.8 - 0.0
28/06:00pm 11.4 5.5 3.9 60 3.3 WNW 24 33 13 18 1020.5 1020.6 0.0
28/05:30pm 11.8 5.5 3.8 58 3.6 WNW 26 35 14 19 1020.4 - 0.0
28/05:00pm 12.7 6.4 3.9 55 4.0 WNW 26 44 14 24 1020.2 - 0.0
28/04:30pm 13.5 7.6 3.8 52 4.4 WNW 24 39 13 21 1020.1 - 0.0
28/04:00pm 14.2 7.2 3.9 50 4.7 WNW 30 41 16 22 1020.0 - 0.0
28/03:30pm 15.0 8.8 4.1 48 5.1 WNW 26 41 14 22 1020.0 - 0.0
28/03:00pm 15.9 11.3 3.7 44 5.6 WNW 17 28 9 15 1019.9 1020.0 0.0
28/02:30pm 16.5 11.7 4.5 45 5.7 WNW 19 26 10 14 1019.9 - 0.0
28/02:00pm 16.6 10.3 3.6 42 6.0 W 26 33 14 18 1019.7 - 0.0
28/01:30pm 16.4 10.0 3.1 41 6.1 WNW 26 37 14 20 1019.9 - 0.0
28/01:00pm 16.5 11.5 4.5 45 5.7 W 20 30 11 16 1020.3 - 0.0
28/12:30pm 15.9 11.5 4.6 47 5.3 NNW 17 24 9 13 1021.0 - 0.0
28/12:00pm 14.7 9.5 3.8 48 5.0 NNW 20 28 11 15 1021.4 1021.5 0.0
28/11:30am 14.1 7.4 3.8 50 4.7 NW 28 35 15 19 1022.2 - 0.0
28/11:00am 13.4 7.4 3.5 51 4.5 NW 24 37 13 20 1022.4 - 0.0
28/10:30am 12.9 6.6 3.6 53 4.2 NW 26 35 14 19 1023.1 - 0.0
28/10:00am 12.3 6.4 3.8 56 3.8 NW 24 33 13 18 1023.0 - 0.0
28/09:30am 11.4 5.5 3.7 59 3.4 NW 24 32 13 17 1022.9 - 0.0
28/09:00am 10.7 4.4 3.5 61 3.2 NW 26 33 14 18 1023.0 1023.1 0.0
28/08:30am 10.0 4.0 3.3 63 2.9 WNW 24 33 13 18 1023.3 - 0.0
28/08:00am 9.2 3.6 3.2 66 2.6 NW 22 32 12 17 1023.0 - 0.0
28/07:30am 8.7 2.3 3.1 68 2.4 WNW 26 35 14 19 1022.9 - 0.0
28/07:00am 8.3 2.3 3.2 70 2.2 NW 24 30 13 16 1022.7 - 0.0
28/06:30am 8.6 2.6 3.2 69 2.3 WNW 24 35 13 19 1022.2 - 0.0
28/06:00am 8.7 3.1 3.3 69 2.3 NW 22 32 12 17 1021.6 1021.7 0.0
28/05:30am 8.8 3.6 3.4 69 2.3 WNW 20 28 11 15 1021.2 - 0.0
28/05:00am 9.0 3.4 3.4 68 2.4 WNW 22 30 12 16 1020.6 - 0.0
28/04:30am 9.4 3.4 3.6 67 2.5 WNW 24 32 13 17 1020.2 - 0.0
28/04:00am 9.8 3.1 3.8 66 2.6 WNW 28 33 15 18 1019.9 - 0.0
28/03:30am 10.0 4.1 3.7 65 2.8 WNW 24 32 13 17 1019.9 - 0.0
28/03:00am 10.1 4.6 3.8 65 2.8 WNW 22 30 12 16 1019.6 1019.7 0.0
28/02:30am 9.8 4.7 4.2 68 2.5 NW 20 28 11 15 1019.7 - 0.0
28/02:00am 10.1 5.6 4.0 66 2.7 NW 17 22 9 12 1019.9 - 0.0
28/01:30am 10.9 5.4 4.1 63 3.0 WNW 22 28 12 15 1019.9 - 0.0
28/01:00am 10.2 5.2 4.6 68 2.5 WNW 20 26 11 14 1020.1 - 0.0
28/12:30am 8.1 6.4 3.9 75 1.8 W 2 9 1 5 1020.1 - 0.0
28/12:00am 9.5 6.1 3.9 68 2.5 WNW 11 19 6 10 1020.1 1020.2 0.0
 
Date/Time
EST
Temp
°C
App
Temp
°C
Dew
Point
°C
Rel
Hum
%
Delta-T
°C
Wind Press
QNH
hPa
Press
MSL
hPa
Rain since
9am
mm
Dir  Spd
km/h
Gust
km/h
Spd
kts
Gust
kts
27/11:30pm 10.4 7.4 3.9 64 2.9 WNW 9 15 5 8 1020.0 - 0.0
27/11:00pm 10.9 7.9 4.1 63 3.0 NW 9 17 5 9 1019.6 - 0.0
27/10:30pm 11.3 6.4 4.3 62 3.2 NW 19 26 10 14 1019.0 - 0.0
27/10:00pm 11.1 5.3 4.3 63 3.1 WNW 24 33 13 18 1018.4 - 0.0
27/09:30pm 11.0 5.9 4.2 63 3.1 NW 20 32 11 17 1018.7 - 0.0
27/09:00pm 11.4 5.5 3.7 59 3.4 WNW 24 37 13 20 1018.7 1018.8 0.0
27/08:35pm 11.6 3.6 3.6 58 3.6 W 35 54 19 29 1018.4 - 0.0
27/08:30pm 12.0 3.6 3.8 57 3.7 W 37 54 20 29 1018.2 - 0.0
27/08:06pm 12.0 4.9 3.3 55 3.9 W 30 48 16 26 1017.6 - 0.0
27/08:00pm 11.9 4.4 3.2 55 3.9 W 32 44 17 24 1017.6 - 0.0
27/07:31pm 12.3 5.4 2.7 52 4.2 W 28 46 15 25 1017.0 - 0.0
27/07:30pm 12.2 5.0 2.9 53 4.1 W 30 46 16 25 1017.0 - 0.0
27/07:22pm 12.3 5.4 2.7 52 4.2 WNW 28 46 15 25 1017.0 - 0.0
27/07:00pm 12.1 6.8 3.1 54 4.0 WNW 20 33 11 18 1016.7 - 0.0
27/06:30pm 12.4 5.7 3.4 54 4.0 WNW 28 41 15 22 1016.1 - 0.0
27/06:00pm 12.5 6.2 3.7 55 4.0 WNW 26 35 14 19 1015.6 1015.6 0.0
27/05:30pm 12.7 6.5 4.2 56 3.9 WNW 26 37 14 20 1014.9 - 0.0
27/05:15pm 12.9 5.9 4.1 55 4.0 WNW 30 50 16 27 1014.7 - 0.0
27/05:00pm 13.3 6.3 3.9 53 4.3 WNW 30 43 16 23 1014.2 - 0.0
27/04:30pm 14.1 5.7 3.8 50 4.7 WNW 37 50 20 27 1014.0 - 0.0
27/04:17pm 14.4 6.0 3.8 49 4.9 WNW 37 56 20 30 1013.7 - 0.0
27/04:00pm 14.8 6.8 3.6 47 5.1 W 35 50 19 27 1013.5 - 0.0
27/03:37pm 15.1 7.6 3.6 46 5.3 W 32 50 17 27 1012.9 - 0.0
27/03:30pm 15.4 8.0 3.9 46 5.3 WNW 32 46 17 25 1012.8 - 0.0
27/03:00pm 15.4 7.0 3.5 45 5.5 WNW 37 52 20 28 1012.3 1012.4 0.0
27/02:30pm 15.6 8.2 4.0 46 5.4 WNW 32 50 17 27 1011.9 - 0.0
27/02:00pm 15.7 7.3 3.5 44 5.6 W 37 56 20 30 1011.5 - 0.0
27/01:30pm 15.7 7.7 3.8 45 5.5 W 35 54 19 29 1011.0 - 0.0
27/01:15pm 15.8 7.9 4.2 46 5.4 W 35 54 19 29 1011.1 - 0.0
27/01:00pm 15.5 5.5 4.2 47 5.3 W 46 61 25 33 1011.0 - 0.0
27/12:30pm 15.1 6.0 3.9 47 5.2 W 41 69 22 37 1011.2 - 0.0
27/12:07pm 15.1 6.4 3.9 47 5.2 WNW 39 57 21 31 1011.2 - 0.0
27/12:00pm 15.2 6.9 4.0 47 5.2 WNW 37 52 20 28 1011.3 1011.4 0.0
27/11:30am 15.1 7.9 4.8 50 4.8 W 32 50 17 27 1011.4 - 0.0
27/11:09am 14.0 6.7 4.3 52 4.5 NW 32 54 17 29 1011.6 - 0.0
27/10:59am 13.7 6.8 4.8 55 4.1 W 30 44 16 24 1011.6 - 0.0
27/10:30am 14.0 7.2 5.1 55 4.2 WNW 30 50 16 27 1011.0 - 0.0
27/10:00am 13.5 6.6 4.6 55 4.1 WNW 30 48 16 26 1010.7 - 0.0
27/09:30am 12.7 5.6 6.3 65 3.1 WNW 33 54 18 29 1009.7 - 0.0
27/09:00am 11.9 5.4 6.4 69 2.6 NW 30 46 16 25 1009.8 1009.9 0.2
27/08:57am 12.2 6.0 6.3 67 2.8 NW 28 46 15 25 1010.0 - 0.2
27/08:30am 11.6 6.7 6.7 72 2.3 WNW 22 33 12 18 1010.3 - 0.2
27/08:00am 10.9 3.9 6.8 76 2.0 W 33 52 18 28 1010.6 - 0.2
27/07:30am 12.3 5.4 4.5 59 3.6 WNW 30 43 16 23 1009.7 - 0.0
27/07:00am 12.0 4.6 4.2 59 3.5 NW 32 50 17 27 1009.2 - 0.0
27/06:40am 11.5 4.9 4.3 61 3.3 NW 28 46 15 25 1008.9 - 0.0
27/06:30am 11.8 4.3 4.3 60 3.4 NW 33 46 18 25 1008.6 - 0.0
27/06:01am 11.6 3.3 4.1 60 3.4 NW 37 56 20 30 1008.2 - 0.0
27/06:00am 11.7 3.0 4.2 60 3.4 NW 39 56 21 30 1008.1 1008.1 0.0
27/05:30am 12.0 2.8 3.3 55 3.9 NW 41 59 22 32 1007.8 - 0.0
27/05:00am 11.9 2.7 3.4 56 3.8 WNW 41 61 22 33 1007.9 - 0.0
27/04:30am 11.5 4.0 3.3 57 3.6 NW 32 52 17 28 1007.6 - 0.0
27/04:12am 11.5 4.4 3.3 57 3.6 NW 30 48 16 26 1008.1 - 0.0
27/04:00am 11.1 4.7 3.4 59 3.4 NW 26 43 14 23 1008.2 - 0.0
27/03:48am 11.2 4.4 3.3 58 3.5 NW 28 48 15 26 1008.4 - 0.0
27/03:30am 10.8 5.7 3.1 59 3.4 NW 19 30 10 16 1008.9 - 0.0
27/03:00am 10.9 5.8 3.2 59 3.4 WNW 19 28 10 15 1009.5 1009.6 0.0
27/02:30am 10.6 4.9 2.9 59 3.3 NW 22 33 12 18 1009.4 - 0.0
27/02:00am 10.8 4.7 2.9 58 3.4 NW 24 33 13 18 1010.4 - 0.0
27/01:30am 10.9 4.8 3.0 58 3.5 WNW 24 39 13 21 1010.9 - 0.0
27/01:00am 10.7 5.6 2.8 58 3.4 NW 19 30 10 16 1011.4 - 0.0
27/12:30am 11.0 5.3 2.6 56 3.6 WNW 22 35 12 19 1011.8 - 0.0
27/12:00am 10.8 5.5 2.1 55 3.7 NW 19 30 10 16 1011.9 1012.0 0.0
 
Date/Time
EST
Temp
°C
App
Temp
°C
Dew
Point
°C
Rel
Hum
%
Delta-T
°C
Wind Press
QNH
hPa
Press
MSL
hPa
Rain since
9am
mm
Dir  Spd
km/h
Gust
km/h
Spd
kts
Gust
kts
26/11:30pm 11.3 6.0 2.1 53 4.0 WNW 19 35 10 19 1011.9 - 0.0
26/11:00pm 11.2 5.4 2.2 54 3.9 WNW 22 39 12 21 1012.4 - 0.0
26/10:49pm 11.2 4.2 2.2 54 3.9 WNW 28 39 15 21 1012.4 - 0.0
26/10:30pm 10.0 6.7 2.4 59 3.2 NNW 9 13 5 7 1012.5 - 0.0
26/10:00pm 10.5 6.8 2.1 56 3.6 NNW 11 17 6 9 1012.7 - 0.0
26/09:30pm 10.7 6.1 1.5 53 3.9 NW 15 26 8 14 1013.0 - 0.0
26/09:00pm 10.2 6.6 0.5 51 4.0 NNW 9 15 5 8 1013.1 1013.2 0.0
26/08:30pm 11.3 5.5 0.1 46 4.6 WNW 20 28 11 15 1013.4 - 0.0
26/08:00pm 11.5 5.3 0.0 45 4.7 NW 22 41 12 22 1013.5 - 0.0
26/07:25pm 11.8 4.5 0.3 45 4.8 WNW 28 46 15 25 1013.5 - 0.0
26/07:00pm 11.7 6.6 0.5 46 4.7 WNW 17 28 9 15 1013.5 - 0.0
26/06:30pm 11.6 5.8 0.1 45 4.7 WNW 20 32 11 17 1013.5 - 0.0
26/06:00pm 11.6 6.4 0.1 45 4.7 WNW 17 24 9 13 1013.3 1013.3 0.0
26/05:30pm 11.8 6.3 0.6 46 4.7 WNW 19 33 10 18 1013.0 - 0.0
26/05:00pm 12.4 6.7 0.5 44 5.0 NW 20 30 11 16 1012.5 - 0.0
26/04:30pm 13.1 7.0 0.2 41 5.4 WNW 22 33 12 18 1012.3 - 0.0
26/04:00pm 13.6 7.0 -0.4 38 5.8 NW 24 35 13 19 1012.3 - 0.0

Other Formats:

Comma delimited format used in spreadsheet applications
http://www.bom.gov.au/fwo/IDN60801/IDN60801.94750.axf

JavaScript Object Notation format (JSON) in row-major order
http://www.bom.gov.au/fwo/IDN60801/IDN60801.94750.json